Time;durP1;ratioP1;P1;durP2;ratioP2;P2;SDS_P1;SDS_P2;PMS_P1;PMS_P2;Temp;Humidity;BMP_temperature;BMP_pressure;BME280_temperature;BME280_humidity;BME280_pressure;Samples;Min_cycle;Max_cycle;Signal;HPM_P1;HPM_P2
2023/02/28 00:00:14;;;;;;;6.00;1.63;;;;;;;14.04;100.00;103622.06;5073259;28;20024;-69
2023/02/28 00:02:41;;;;;;;16.00;2.67;;;;;;;14.11;100.00;103620.72;5073386;28;20021;-69
2023/02/28 00:05:08;;;;;;;5.78;1.88;;;;;;;14.14;100.00;103616.63;5073382;28;20463;-68
2023/02/28 00:07:34;;;;;;;6.57;1.23;;;;;;;14.46;100.00;103618.44;5073019;28;20027;-68
2023/02/28 00:10:00;;;;;;;6.68;1.55;;;;;;;14.32;100.00;103618.91;5073045;28;20024;-68
2023/02/28 00:12:26;;;;;;;5.53;1.45;;;;;;;14.37;100.00;103624.44;5073016;28;20217;-72
2023/02/28 00:14:51;;;;;;;4.35;2.13;;;;;;;14.42;100.00;103624.44;5072724;28;20021;-71
2023/02/28 00:17:20;;;;;;;6.50;1.63;;;;;;;14.23;100.00;103628.78;5072938;28;20108;-68
2023/02/28 00:19:50;;;;;;;8.43;2.15;;;;;;;14.32;100.00;103624.41;5072414;28;20478;-68
2023/02/28 00:22:17;;;;;;;6.05;1.48;;;;;;;14.35;100.00;103618.34;5073121;28;20029;-68
2023/02/28 00:24:43;;;;;;;7.32;2.65;;;;;;;14.44;100.00;103627.78;5072791;28;20054;-72
2023/02/28 00:27:09;;;;;;;5.47;1.92;;;;;;;14.41;100.00;103621.97;5072989;28;20021;-68
2023/02/28 00:29:35;;;;;;;7.18;1.70;;;;;;;14.35;100.00;103629.34;5072710;28;20027;-68
2023/02/28 00:32:01;;;;;;;6.53;1.73;;;;;;;14.46;100.00;103632.22;5072657;28;20024;-68
2023/02/28 00:34:26;;;;;;;6.38;1.77;;;;;;;14.48;100.00;103630.00;5072527;28;20024;-67
2023/02/28 00:36:52;;;;;;;9.70;2.00;;;;;;;14.55;100.00;103622.34;5072634;28;20055;-72
2023/02/28 00:39:17;;;;;;;8.40;2.03;;;;;;;14.59;100.00;103618.78;5072613;28;20061;-68
2023/02/28 00:41:43;;;;;;;6.35;2.25;;;;;;;14.32;100.00;103632.66;5072500;28;20021;-72
2023/02/28 00:44:09;;;;;;;5.88;1.50;;;;;;;14.43;100.00;103636.28;5072532;28;20024;-68
2023/02/28 00:46:35;;;;;;;5.10;1.73;;;;;;;14.26;100.00;103628.22;5072517;28;20017;-68
2023/02/28 00:49:00;;;;;;;14.65;3.17;;;;;;;14.14;100.00;103631.22;5072691;28;20474;-68
2023/02/28 00:51:26;;;;;;;8.77;1.50;;;;;;;14.26;100.00;103635.66;5072425;28;20505;-68
2023/02/28 00:53:52;;;;;;;5.05;1.58;;;;;;;14.28;100.00;103631.56;5072114;28;20048;-68
2023/02/28 00:56:17;;;;;;;7.32;2.05;;;;;;;14.86;100.00;103629.56;5072560;28;20032;-72
2023/02/28 00:58:43;;;;;;;8.40;1.83;;;;;;;14.56;100.00;103640.50;5072397;28;20104;-68
2023/02/28 01:01:08;;;;;;;7.80;2.03;;;;;;;14.42;100.00;103638.19;5072632;28;20047;-68
2023/02/28 01:03:34;;;;;;;3.65;1.20;;;;;;;14.30;100.00;103634.84;5072293;28;20024;-68
2023/02/28 01:06:00;;;;;;;6.07;1.50;;;;;;;14.38;100.00;103634.34;5072352;28;20048;-68
2023/02/28 01:08:26;;;;;;;7.07;1.38;;;;;;;14.11;100.00;103639.16;5072219;28;20028;-69
2023/02/28 01:10:52;;;;;;;10.60;2.35;;;;;;;13.91;100.00;103639.88;5072262;28;20048;-68
2023/02/28 01:13:19;;;;;;;6.22;1.30;;;;;;;13.96;100.00;103639.06;5072296;28;20056;-68
2023/02/28 01:15:53;;;;;;;5.53;1.38;;;;;;;13.98;100.00;103640.47;5072100;28;20055;-68
2023/02/28 01:18:18;;;;;;;10.23;1.67;;;;;;;13.93;100.00;103639.59;5072159;28;20024;-68
2023/02/28 01:20:45;;;;;;;8.13;2.30;;;;;;;13.97;100.00;103646.22;5071890;28;20031;-68
2023/02/28 01:23:11;;;;;;;6.18;2.00;;;;;;;13.95;100.00;103645.66;5072415;28;20163;-68
2023/02/28 01:25:37;;;;;;;8.75;1.95;;;;;;;14.05;100.00;103640.22;5072135;28;20684;-71
2023/02/28 01:28:05;;;;;;;8.13;1.55;;;;;;;14.08;100.00;103639.69;5072026;28;20107;-68
2023/02/28 01:30:31;;;;;;;6.97;2.17;;;;;;;14.27;100.00;103643.63;5072135;28;20028;-68
2023/02/28 01:32:58;;;;;;;5.38;1.55;;;;;;;14.20;100.00;103642.22;5075445;28;20096;-68
2023/02/28 01:35:23;;;;;;;7.47;1.48;;;;;;;14.34;100.00;103638.72;5075990;28;20479;-68
2023/02/28 01:37:49;;;;;;;7.43;2.05;;;;;;;14.40;100.00;103642.31;5076248;28;20017;-72
2023/02/28 01:40:14;;;;;;;8.60;1.67;;;;;;;14.44;100.00;103641.53;5075741;28;20020;-72
2023/02/28 01:42:40;;;;;;;9.15;2.05;;;;;;;14.35;100.00;103637.63;5075700;28;20027;-68
2023/02/28 01:45:18;;;;;;;6.00;1.70;;;;;;;13.95;100.00;103642.91;5075901;28;20029;-69
2023/02/28 01:47:45;;;;;;;6.97;1.52;;;;;;;13.98;100.00;103639.63;5075552;28;20032;-68
2023/02/28 01:50:25;;;;;;;7.28;1.40;;;;;;;14.00;100.00;103632.78;5075575;28;20030;-68
2023/02/28 01:52:56;;;;;;;8.18;1.48;;;;;;;14.27;100.00;103638.13;5075781;28;20029;-72
2023/02/28 01:55:28;;;;;;;7.38;1.52;;;;;;;14.29;100.00;103641.47;5075299;28;20458;-69
2023/02/28 01:57:57;;;;;;;5.97;1.50;;;;;;;14.25;100.00;103642.25;5074476;28;20435;-68
2023/02/28 02:00:26;;;;;;;5.28;1.38;;;;;;;14.33;100.00;103639.81;5075603;28;20032;-68
2023/02/28 02:02:57;;;;;;;7.97;1.40;;;;;;;14.41;100.00;103642.03;5075511;28;20052;-69
2023/02/28 02:05:26;;;;;;;7.45;1.75;;;;;;;14.38;100.00;103639.84;5075443;28;20522;-68
2023/02/28 02:07:56;;;;;;;9.32;2.05;;;;;;;14.52;100.00;103647.66;5075330;28;20024;-68
2023/02/28 02:10:26;;;;;;;;;;;;;;;14.59;100.00;103645.47;5076050;28;20025;-68
2023/02/28 02:13:13;;;;;;;6.75;1.55;;;;;;;14.71;100.00;103643.28;5075350;28;19995;-68
2023/02/28 02:16:01;;;;;;;6.15;1.83;;;;;;;14.62;100.00;103639.41;5075501;28;20425;-68
2023/02/28 02:18:33;;;;;;;6.38;1.52;;;;;;;14.56;100.00;103646.00;5074977;28;20024;-68
2023/02/28 02:21:30;;;;;;;6.82;1.30;;;;;;;14.43;100.00;103648.13;5075255;28;20034;-71
2023/02/28 02:24:11;;;;;;;3.17;1.13;;;;;;;14.56;100.00;103646.00;5075076;28;20025;-68
2023/02/28 02:26:59;;;;;;;6.38;1.45;;;;;;;14.62;100.00;103651.25;5075370;28;20020;-68
2023/02/28 02:29:45;;;;;;;4.25;1.10;;;;;;;14.69;100.00;103649.06;5054478;28;20037;-68
2023/02/28 02:32:44;;;;;;;7.40;2.00;;;;;;;14.67;100.00;103647.69;5054765;28;20033;-68
2023/02/28 02:35:13;;;;;;;3.85;1.10;;;;;;;14.66;100.00;103646.88;5055128;28;20056;-68
2023/02/28 02:38:06;;;;;;;9.77;1.92;;;;;;;14.56;100.00;103646.81;5054803;28;20025;-68
2023/02/28 02:40:41;;;;;;;8.40;2.70;;;;;;;14.79;100.00;103640.00;5054850;28;20055;-68
2023/02/28 02:43:12;;;;;;;11.40;3.75;;;;;;;14.55;100.00;103647.09;5054259;28;20103;-72
2023/02/28 02:45:44;;;;;;;6.88;2.53;;;;;;;14.71;100.00;103648.78;5054724;28;20025;-68
2023/02/28 02:48:15;;;;;;;4.43;2.38;;;;;;;14.55;100.00;103644.34;5054938;28;20051;-68
2023/02/28 02:50:45;;;;;;;4.72;3.00;;;;;;;14.36;100.00;103642.03;5054670;28;20464;-69
2023/02/28 02:53:14;;;;;;;6.60;3.05;;;;;;;14.14;100.00;103635.88;5054349;28;20029;-72
2023/02/28 02:55:44;;;;;;;7.25;2.10;;;;;;;13.74;100.00;103640.00;5054731;28;20517;-68
2023/02/28 02:58:15;;;;;;;8.05;2.30;;;;;;;13.74;100.00;103640.00;5054979;28;20036;-68
2023/02/28 03:00:48;;;;;;;8.45;2.00;;;;;;;13.81;100.00;103637.03;5054719;28;20391;-69
2023/02/28 03:03:17;;;;;;;8.50;2.38;;;;;;;14.14;100.00;103639.47;5054352;28;20063;-68
2023/02/28 03:05:48;;;;;;;8.13;2.72;;;;;;;14.18;100.00;103638.91;5054274;28;20040;-68
2023/02/28 03:08:15;;;;;;;4.80;2.50;;;;;;;14.30;100.00;103639.53;5054295;28;20539;-68
2023/02/28 03:10:43;;;;;;;5.43;2.28;;;;;;;14.02;100.00;103636.09;5054198;28;20394;-70
2023/02/28 03:13:08;;;;;;;12.98;2.72;;;;;;;14.18;100.00;103638.91;5054140;28;20029;-72
2023/02/28 03:16:12;;;;;;;13.93;3.42;;;;;;;14.52;100.00;103647.66;5054063;28;20090;-68
2023/02/28 03:18:58;;;;;;;5.72;2.10;;;;;;;14.60;100.00;103647.94;5054132;28;20045;-68
2023/02/28 03:21:35;;;;;;;9.18;2.17;;;;;;;14.64;100.00;103634.47;5054125;28;20040;-68
2023/02/28 03:24:10;;;;;;;8.23;2.35;;;;;;;14.53;100.00;103630.84;5053977;28;20047;-68
2023/02/28 03:26:42;;;;;;;7.43;2.80;;;;;;;14.04;100.00;103633.06;5053968;28;20025;-68
2023/02/28 03:29:18;;;;;;;12.10;2.88;;;;;;;14.34;100.00;103632.38;5053907;28;20056;-69
2023/02/28 03:32:14;;;;;;;5.90;2.28;;;;;;;14.21;100.00;103636.47;5053901;28;20482;-68
2023/02/28 03:34:46;;;;;;;6.00;1.55;;;;;;;14.41;100.00;103638.47;5053772;28;20525;-72
2023/02/28 03:37:18;;;;;;;6.07;1.20;;;;;;;14.49;100.00;103637.97;5053645;28;20044;-68
2023/02/28 03:39:49;;;;;;;6.53;1.33;;;;;;;14.53;100.00;103643.78;5053722;28;20033;-68
2023/02/28 03:42:24;;;;;;;23.83;3.35;;;;;;;14.35;100.00;103642.28;5053642;28;20056;-68
2023/02/28 03:45:22;;;;;;;8.43;2.10;;;;;;;14.22;100.00;103640.88;5053565;28;20025;-72
2023/02/28 03:48:05;;;;;;;6.13;1.95;;;;;;;14.51;100.00;103648.72;5049368;28;20059;-68
2023/02/28 03:50:42;;;;;;;6.65;1.75;;;;;;;14.46;100.00;103645.97;5053803;28;20047;-70
2023/02/28 03:53:32;;;;;;;3.33;1.17;;;;;;;14.55;100.00;103645.16;5052928;28;20063;-69
2023/02/28 03:56:37;;;;;;;5.78;1.98;;;;;;;14.53;100.00;103649.28;5052393;28;20035;-68
2023/02/28 03:59:14;;;;;;;8.23;1.45;;;;;;;14.46;100.00;103648.72;5042142;28;20112;-68
2023/02/28 04:01:44;;;;;;;6.03;1.58;;;;;;;14.34;100.00;103651.66;5053204;28;20472;-71
2023/02/28 04:04:12;;;;;;;3.22;1.10;;;;;;;14.19;100.00;103649.63;5053456;28;20017;-69
2023/02/28 04:06:39;;;;;;;9.27;1.90;;;;;;;14.54;100.00;103648.19;5053233;28;20021;-68
2023/02/28 04:09:08;;;;;;;4.50;1.67;;;;;;;14.39;100.00;103659.94;5053398;28;20016;-70
2023/02/28 04:11:40;;;;;;;6.80;1.90;;;;;;;14.43;100.00;103650.88;5053058;28;20036;-68
2023/02/28 04:14:07;;;;;;;6.40;1.38;;;;;;;14.40;100.00;103659.66;5053048;28;20096;-72
2023/02/28 04:16:34;;;;;;;8.07;1.90;;;;;;;14.29;100.00;103657.97;5051651;28;20499;-68
2023/02/28 04:19:04;;;;;;;5.80;2.00;;;;;;;14.43;100.00;103661.88;5052981;28;20158;-68
2023/02/28 04:21:31;;;;;;;7.22;1.95;;;;;;;14.30;100.00;103659.63;5052861;28;20036;-69
2023/02/28 04:24:00;;;;;;;7.20;2.20;;;;;;;14.32;100.00;103671.16;5052828;28;20024;-71
2023/02/28 04:26:32;;;;;;;6.40;1.83;;;;;;;14.15;100.00;103676.03;5052840;28;20036;-69
2023/02/28 04:29:00;;;;;;;6.28;1.83;;;;;;;14.22;100.00;103678.56;5052824;28;20060;-69
2023/02/28 04:31:26;;;;;;;6.15;1.77;;;;;;;14.10;100.00;103679.56;5052753;28;20025;-67
2023/02/28 04:33:51;;;;;;;5.65;1.52;;;;;;;13.95;100.00;103670.41;5052738;28;20040;-68
2023/02/28 04:36:17;;;;;;;6.63;1.70;;;;;;;13.87;100.00;103680.78;5052575;28;20033;-71
2023/02/28 04:38:44;;;;;;;8.00;1.58;;;;;;;14.19;100.00;103679.06;5052652;28;20025;-68
2023/02/28 04:41:10;;;;;;;12.57;1.70;;;;;;;14.04;100.00;103671.56;5052541;28;20082;-69
2023/02/28 04:43:36;;;;;;;8.90;2.22;;;;;;;13.91;100.00;103672.84;5052868;28;20040;-68
2023/02/28 04:46:04;;;;;;;5.07;1.33;;;;;;;13.77;100.00;103683.47;5052546;28;20387;-68
2023/02/28 04:48:32;;;;;;;7.47;1.85;;;;;;;14.08;98.79;103681.75;5052547;28;20558;-68
2023/02/28 04:51:06;;;;;;;5.35;1.65;;;;;;;14.10;100.00;103681.50;5052750;28;20025;-68
2023/02/28 04:53:32;;;;;;;9.20;2.72;;;;;;;14.25;96.38;103687.09;5052280;28;20474;-68
2023/02/28 04:55:58;;;;;;;7.85;1.50;;;;;;;14.14;100.00;103690.88;5052360;28;20117;-68
2023/02/28 04:58:24;;;;;;;5.53;1.38;;;;;;;13.82;100.00;103691.72;5052583;28;20487;-68
2023/02/28 05:00:54;;;;;;;7.18;1.25;;;;;;;13.77;100.00;103688.97;5052595;28;20063;-68
2023/02/28 05:03:21;;;;;;;5.35;1.17;;;;;;;13.73;100.00;103684.25;5052338;28;20021;-68
2023/02/28 05:05:47;;;;;;;3.92;1.75;;;;;;;13.84;99.50;103689.56;5052038;28;20104;-68
2023/02/28 05:08:13;;;;;;;7.10;1.77;;;;;;;14.04;95.12;103691.63;5052533;28;20063;-68
2023/02/28 05:10:39;;;;;;;3.50;1.65;;;;;;;13.85;100.00;103690.41;5052204;28;20078;-72
2023/02/28 05:13:05;;;;;;;5.90;2.35;;;;;;;13.81;100.00;103692.00;5052595;28;20033;-68
2023/02/28 05:15:31;;;;;;;4.80;2.28;;;;;;;13.67;100.00;103694.38;5052115;28;20021;-69
2023/02/28 05:17:56;;;;;;;4.60;2.05;;;;;;;13.59;100.00;103698.41;5052105;28;20029;-71
2023/02/28 05:20:22;;;;;;;9.63;2.88;;;;;;;13.95;100.00;103692.38;5052272;28;20029;-68
2023/02/28 05:22:49;;;;;;;5.60;2.65;;;;;;;13.81;100.00;103698.34;5052237;28;20486;-68
2023/02/28 05:25:20;;;;;;;7.07;2.10;;;;;;;13.88;100.00;103700.84;5052367;28;20029;-68
2023/02/28 05:27:46;;;;;;;5.30;2.00;;;;;;;13.83;100.00;103709.91;5052099;28;20467;-68
2023/02/28 05:30:11;;;;;;;4.75;1.77;;;;;;;13.68;100.00;103707.03;5052005;28;20079;-68
2023/02/28 05:32:39;;;;;;;8.68;2.58;;;;;;;14.04;100.00;103707.28;5052054;28;20135;-68
2023/02/28 05:35:05;;;;;;;4.57;2.05;;;;;;;13.88;100.00;103706.34;5050711;28;20446;-73
2023/02/28 05:37:31;;;;;;;5.93;2.22;;;;;;;13.45;100.00;103704.59;5052307;28;20395;-72
2023/02/28 05:39:56;;;;;;;4.82;2.00;;;;;;;13.35;100.00;103705.34;5050673;28;20036;-72
2023/02/28 05:42:22;;;;;;;5.32;2.15;;;;;;;13.46;100.00;103715.34;5051982;28;20033;-68
2023/02/28 05:44:48;;;;;;;8.48;2.05;;;;;;;13.70;100.00;103712.25;5051885;28;20028;-68
2023/02/28 05:47:15;;;;;;;8.60;3.20;;;;;;;13.69;100.00;103718.84;5051948;28;20032;-69
2023/02/28 05:49:41;;;;;;;4.03;1.70;;;;;;;13.48;100.00;103720.59;5050633;28;20037;-71
2023/02/28 05:52:07;;;;;;;7.13;2.25;;;;;;;13.46;100.00;103726.34;5051875;28;20028;-67
2023/02/28 05:54:33;;;;;;;5.85;1.90;;;;;;;13.23;100.00;103716.50;5051673;28;20399;-66
2023/02/28 05:56:59;;;;;;;6.35;2.00;;;;;;;13.17;100.00;103725.75;5051773;28;20102;-70
2023/02/28 05:59:25;;;;;;;7.55;2.38;;;;;;;12.90;100.00;103720.19;5051803;28;20025;-67
2023/02/28 06:01:52;;;;;;;4.53;1.70;;;;;;;12.61;100.00;103724.22;5051844;28;20021;-69
2023/02/28 06:04:20;;;;;;;5.63;1.75;;;;;;;12.99;100.00;103732.38;5051770;28;20024;-66
2023/02/28 06:06:47;;;;;;;6.18;2.35;;;;;;;13.00;100.00;103733.25;5051675;28;20033;-66
2023/02/28 06:09:13;;;;;;;5.90;2.65;;;;;;;13.31;100.00;103729.78;5051781;28;20020;-67
2023/02/28 06:11:39;;;;;;;7.35;2.40;;;;;;;13.28;100.00;103727.53;5051795;28;20103;-67
2023/02/28 06:14:04;;;;;;;6.35;2.80;;;;;;;13.43;100.00;103732.34;5050470;28;20025;-69
2023/02/28 06:16:32;;;;;;;7.45;1.85;;;;;;;13.35;100.00;103735.56;5051545;28;20090;-72
2023/02/28 06:19:00;;;;;;;4.57;1.20;;;;;;;12.88;100.00;103735.28;5053274;28;20441;-76
2023/02/28 06:21:29;;;;;;;6.15;2.00;;;;;;;13.01;100.00;103737.63;5068972;28;20098;-72
2023/02/28 06:23:56;;;;;;;5.75;1.88;;;;;;;13.05;100.00;103741.50;5074477;28;20021;-73
2023/02/28 06:26:22;;;;;;;3.75;1.80;;;;;;;13.17;100.00;103750.44;5074776;28;20479;-70
2023/02/28 06:28:48;;;;;;;8.55;2.10;;;;;;;13.20;100.00;103746.38;5075062;28;20028;-73
2023/02/28 06:31:16;;;;;;;6.90;2.92;;;;;;;13.09;100.00;103747.34;5074872;28;20103;-75
2023/02/28 06:33:43;;;;;;;6.57;2.25;;;;;;;13.12;100.00;103755.88;5074451;28;20050;-74
2023/02/28 06:36:10;;;;;;;4.97;1.88;;;;;;;12.53;100.00;103749.34;5074868;28;20111;-74
2023/02/28 06:38:36;;;;;;;5.25;1.98;;;;;;;12.70;100.00;103753.72;5074907;28;20043;-74
2023/02/28 06:41:02;;;;;;;2.50;1.20;;;;;;;12.43;100.00;103755.53;5074704;28;20032;-74
2023/02/28 06:43:32;;;;;;;3.58;1.23;;;;;;;12.30;100.00;103750.38;5074808;28;20052;-73
2023/02/28 06:46:00;;;;;;;5.25;1.45;;;;;;;12.30;100.00;103755.88;5078019;28;20024;-74
2023/02/28 06:48:26;;;;;;;6.32;1.75;;;;;;;12.07;100.00;103765.94;5083363;28;20085;-77
2023/02/28 06:50:52;;;;;;;4.20;1.40;;;;;;;12.29;100.00;103754.22;5072310;28;20056;-74
2023/02/28 06:53:18;;;;;;;10.95;2.15;;;;;;;12.28;100.00;103767.09;5088231;28;20077;-74
2023/02/28 06:55:44;;;;;;;9.32;2.38;;;;;;;12.42;100.00;103764.84;5075658;28;20029;-75
2023/02/28 06:58:15;;;;;;;5.63;1.88;;;;;;;12.44;100.00;103757.19;5074598;28;20033;-76
2023/02/28 07:00:42;;;;;;;5.53;1.35;;;;;;;12.34;100.00;103757.03;5072983;28;20035;-75
2023/02/28 07:03:08;;;;;;;3.95;1.35;;;;;;;12.58;100.00;103752.16;5074563;28;20025;-75
2023/02/28 07:05:37;;;;;;;4.45;1.55;;;;;;;12.48;100.00;103758.34;5090727;28;20425;-73
2023/02/28 07:08:05;;;;;;;10.55;2.67;;;;;;;12.29;100.00;103766.00;5093409;28;20116;-75
2023/02/28 07:10:32;;;;;;;4.85;1.38;;;;;;;12.09;100.00;103765.69;5094373;28;20058;-72
2023/02/28 07:12:59;;;;;;;12.35;2.08;;;;;;;12.21;100.00;103775.50;5094290;28;20024;-71
2023/02/28 07:15:24;;;;;;;3.47;1.25;;;;;;;12.05;100.00;103773.59;5093798;28;20040;-71
2023/02/28 07:17:50;;;;;;;8.30;1.10;;;;;;;12.10;100.00;103772.84;5084353;28;20025;-78
2023/02/28 07:20:16;;;;;;;7.70;1.63;;;;;;;12.24;100.00;103774.16;5072329;28;20040;-73
2023/02/28 07:22:42;;;;;;;6.93;1.55;;;;;;;12.13;100.00;103778.66;5072527;28;20447;-72
2023/02/28 07:25:08;;;;;;;4.65;1.60;;;;;;;12.04;100.00;103780.16;5073744;28;20074;-74
2023/02/28 07:27:34;;;;;;;4.05;1.38;;;;;;;12.06;100.00;103766.19;5073415;28;20064;-73
2023/02/28 07:30:01;;;;;;;4.57;1.48;;;;;;;12.06;100.00;103785.38;5072592;28;20024;-72
2023/02/28 07:32:27;;;;;;;3.45;1.70;;;;;;;11.53;100.00;103781.97;5070076;28;20476;-74
2023/02/28 07:34:53;;;;;;;3.17;1.33;;;;;;;11.56;100.00;103786.97;5071427;28;20077;-75
2023/02/28 07:37:19;;;;;;;3.53;1.00;;;;;;;11.44;100.00;103783.44;5074153;28;20115;-74
2023/02/28 07:39:44;;;;;;;6.10;1.90;;;;;;;11.77;100.00;103782.66;5073399;28;20037;-73
2023/02/28 07:42:11;;;;;;;8.02;2.20;;;;;;;12.23;100.00;103798.00;5070468;28;20024;-73
2023/02/28 07:44:40;;;;;;;4.05;1.65;;;;;;;11.92;100.00;103795.84;5072189;28;20040;-71
2023/02/28 07:47:09;;;;;;;4.95;1.70;;;;;;;11.86;100.00;103794.94;5071719;28;20025;-73
2023/02/28 07:49:39;;;;;;;5.00;1.33;;;;;;;11.89;100.00;103796.34;5070441;28;20106;-71
2023/02/28 07:52:06;;;;;;;8.18;1.85;;;;;;;12.02;100.00;103809.72;5070249;28;20043;-71
2023/02/28 07:54:32;;;;;;;2.95;1.10;;;;;;;11.97;100.00;103809.63;5069776;28;20665;-72
2023/02/28 07:56:58;;;;;;;4.97;1.15;;;;;;;11.76;100.00;103800.19;5070133;28;20111;-70
2023/02/28 07:59:23;;;;;;;5.65;1.42;;;;;;;11.91;100.00;103802.41;5071984;28;20182;-70
2023/02/28 08:01:50;;;;;;;5.97;1.15;;;;;;;12.04;100.00;103802.09;5072502;28;20021;-70
2023/02/28 08:04:17;;;;;;;2.72;1.13;;;;;;;11.72;100.00;103803.69;5070855;28;20030;-70
2023/02/28 08:06:43;;;;;;;2.92;1.10;;;;;;;11.56;100.00;103797.91;5071339;28;20586;-71
2023/02/28 08:09:09;;;;;;;5.47;1.48;;;;;;;12.29;100.00;103809.88;5071401;28;20060;-70
2023/02/28 08:11:34;;;;;;;5.63;1.25;;;;;;;12.31;100.00;103815.94;5065953;28;20024;-74
2023/02/28 08:14:00;;;;;;;5.35;1.30;;;;;;;12.30;98.72;103821.69;5057317;28;20387;-72
2023/02/28 08:16:26;;;;;;;5.80;1.65;;;;;;;11.89;100.00;103821.00;5072728;28;20043;-73
2023/02/28 08:18:52;;;;;;;3.25;1.13;;;;;;;11.86;100.00;103818.75;5072909;28;20071;-72
2023/02/28 08:21:19;;;;;;;4.30;1.15;;;;;;;11.90;99.31;103820.75;5071719;28;20032;-75
2023/02/28 08:23:50;;;;;;;3.33;1.17;;;;;;;12.01;100.00;103829.13;5072701;28;20162;-73
2023/02/28 08:26:18;;;;;;;6.47;1.30;;;;;;;12.12;99.56;103831.00;5069114;28;20036;-74
2023/02/28 08:28:45;;;;;;;3.33;1.10;;;;;;;11.84;95.06;103831.84;5072834;28;20040;-71
2023/02/28 08:31:13;;;;;;;3.95;0.75;;;;;;;11.76;98.21;103838.53;5072782;28;20060;-71
2023/02/28 08:33:40;;;;;;;3.55;0.98;;;;;;;11.94;95.10;103835.63;5072780;28;20048;-71
2023/02/28 08:36:08;;;;;;;2.53;1.13;;;;;;;12.10;90.81;103833.97;5071247;28;20037;-74
2023/02/28 08:38:35;;;;;;;5.25;1.33;;;;;;;11.99;92.79;103834.88;5072933;28;20031;-72
2023/02/28 08:41:05;;;;;;;5.93;1.25;;;;;;;12.15;92.86;103836.78;5071008;28;20104;-72
2023/02/28 08:43:31;;;;;;;3.38;1.35;;;;;;;12.44;90.50;103840.28;5072671;28;20028;-71
2023/02/28 08:45:57;;;;;;;3.65;1.20;;;;;;;12.34;98.34;103834.66;5072652;28;20031;-74
2023/02/28 08:48:24;;;;;;;2.97;1.40;;;;;;;11.80;100.00;103834.28;5072574;28;20028;-71
2023/02/28 08:51:05;;;;;;;5.50;2.22;;;;;;;11.98;100.00;103827.72;5072413;28;20036;-72
2023/02/28 08:53:31;;;;;;;4.88;1.67;;;;;;;12.30;100.00;103833.47;5072220;28;20160;-72
2023/02/28 08:56:10;;;;;;;6.10;2.47;;;;;;;12.33;100.00;103819.28;5072418;28;20120;-73
2023/02/28 08:58:36;;;;;;;;;;;;;;;12.63;99.40;103832.63;5072658;28;20051;-74
2023/02/28 09:01:11;;;;;;;4.57;1.27;;;;;;;12.25;100.00;103827.94;5072336;28;19912;-73
2023/02/28 09:03:37;;;;;;;2.85;1.08;;;;;;;12.31;92.96;103824.16;5072480;28;20112;-73
2023/02/28 09:06:04;;;;;;;1.33;1.02;;;;;;;12.28;89.36;103823.84;5070709;28;20055;-73
2023/02/28 09:08:30;;;;;;;3.05;1.10;;;;;;;12.22;87.09;103831.97;5072323;28;20378;-73
2023/02/28 09:10:57;;;;;;;4.20;1.25;;;;;;;11.97;82.09;103828.81;5072201;28;20157;-73
2023/02/28 09:13:24;;;;;;;2.05;0.90;;;;;;;12.45;82.72;103836.47;5072459;28;20446;-73
2023/02/28 09:15:52;;;;;;;11.43;1.23;;;;;;;12.26;85.19;103834.25;5072254;28;20107;-73
2023/02/28 09:18:18;;;;;;;2.15;0.63;;;;;;;12.35;91.02;103843.69;5072616;28;20414;-74
2023/02/28 09:20:43;;;;;;;3.58;1.08;;;;;;;11.64;100.00;103833.13;5069011;28;20033;-75
2023/02/28 09:23:11;;;;;;;5.50;1.15;;;;;;;11.76;100.00;103838.53;5071741;28;20111;-75
2023/02/28 09:25:37;;;;;;;4.25;1.10;;;;;;;12.33;100.00;103835.72;5072026;28;20094;-75
2023/02/28 09:28:04;;;;;;;2.90;0.95;;;;;;;11.97;100.00;103834.28;5072126;28;20033;-76
2023/02/28 09:30:30;;;;;;;1.60;1.00;;;;;;;11.95;100.00;103841.94;5072026;28;20119;-75
2023/02/28 09:32:55;;;;;;;8.18;1.65;;;;;;;12.15;100.00;103847.75;5070700;28;20060;-74
2023/02/28 09:35:23;;;;;;;4.28;1.30;;;;;;;12.47;100.00;103842.53;5070640;28;20118;-75
2023/02/28 09:37:52;;;;;;;2.85;1.30;;;;;;;11.86;100.00;103848.88;5070537;28;20114;-75
2023/02/28 09:40:23;;;;;;;4.50;1.42;;;;;;;12.19;100.00;103846.19;5071905;28;20506;-75
2023/02/28 09:42:52;;;;;;;1.75;0.65;;;;;;;11.78;100.00;103849.25;5071956;28;20402;-75
2023/02/28 09:45:33;;;;;;;2.85;0.90;;;;;;;12.15;100.00;103866.94;5071964;28;20103;-75
2023/02/28 09:48:15;;;;;;;4.22;0.93;;;;;;;12.62;100.00;103861.16;5072145;28;20485;-75
2023/02/28 09:50:47;;;;;;;3.95;1.00;;;;;;;12.68;100.00;103857.38;5071798;28;20031;-76
2023/02/28 09:53:39;;;;;;;1.90;0.80;;;;;;;12.69;100.00;103852.72;5072173;28;20020;-75
2023/02/28 09:56:15;;;;;;;2.30;0.90;;;;;;;11.99;100.00;103859.53;5073323;28;20025;-74
2023/02/28 09:58:47;;;;;;;2.60;0.70;;;;;;;12.38;100.00;103851.41;5074159;28;20029;-75
2023/02/28 10:01:24;;;;;;;1.52;0.70;;;;;;;12.27;100.00;103860.56;5074024;28;20064;-74
2023/02/28 10:04:13;;;;;;;1.63;0.50;;;;;;;12.15;100.00;103863.38;5074828;28;20032;-75
2023/02/28 10:06:48;;;;;;;2.28;0.95;;;;;;;11.94;100.00;103856.72;5074999;28;20063;-75
2023/02/28 10:09:20;;;;;;;0.85;0.70;;;;;;;12.52;100.00;103866.47;5074873;28;20029;-74
2023/02/28 10:11:46;;;;;;;1.92;0.77;;;;;;;12.50;100.00;103858.50;5073681;28;20040;-75
2023/02/28 10:14:21;;;;;;;4.18;0.82;;;;;;;12.45;100.00;103861.13;5075175;28;20115;-73
2023/02/28 10:17:01;;;;;;;2.63;0.80;;;;;;;12.87;100.00;103860.69;5073821;28;20093;-71
2023/02/28 10:19:42;;;;;;;0.80;0.50;;;;;;;11.93;100.00;103860.50;5074782;28;20086;-73
2023/02/28 10:22:38;;;;;;;1.40;0.60;;;;;;;12.27;100.00;103861.41;5074743;28;20032;-73
2023/02/28 10:25:23;;;;;;;2.20;0.70;;;;;;;12.60;100.00;103870.69;5073290;28;20231;-74
2023/02/28 10:27:53;;;;;;;2.88;0.75;;;;;;;12.33;100.00;103859.59;5074737;28;20032;-73
2023/02/28 10:30:18;;;;;;;2.80;0.68;;;;;;;12.19;100.00;103862.66;5074734;28;20031;-75
2023/02/28 10:32:56;;;;;;;1.98;0.90;;;;;;;12.20;100.00;103858.00;5074639;28;20398;-75
2023/02/28 10:35:26;;;;;;;1.98;0.70;;;;;;;12.41;100.00;103854.50;5074500;28;20115;-75
2023/02/28 10:37:57;;;;;;;0.63;0.52;;;;;;;12.31;100.00;103858.97;5074778;28;20032;-75
2023/02/28 10:40:23;;;;;;;1.65;0.60;;;;;;;12.39;100.00;103851.19;5073329;28;20433;-75
2023/02/28 10:43:04;;;;;;;1.10;0.60;;;;;;;12.17;100.00;103853.00;5072944;28;20025;-74
2023/02/28 10:45:32;;;;;;;1.80;0.85;;;;;;;12.48;100.00;103855.16;5053088;28;20116;-73
2023/02/28 10:48:01;;;;;;;1.83;0.68;;;;;;;12.36;100.00;103854.41;5088312;28;20040;-75
2023/02/28 10:50:28;;;;;;;0.80;0.63;;;;;;;12.44;100.00;103856.75;5102176;28;20020;-72
2023/02/28 10:52:54;;;;;;;5.25;0.80;;;;;;;12.65;94.90;103854.31;5062734;28;20032;-74
2023/02/28 10:55:24;;;;;;;1.15;0.40;;;;;;;12.05;97.46;103853.06;5054089;28;20049;-71
2023/02/28 10:57:51;;;;;;;2.42;0.50;;;;;;;12.15;92.43;103864.19;5086079;28;20036;-72
2023/02/28 11:00:25;;;;;;;4.45;0.93;;;;;;;12.70;88.39;103866.22;5055191;28;20445;-74
2023/02/28 11:02:51;;;;;;;1.65;0.65;;;;;;;12.59;92.60;103858.88;5062526;28;20464;-75
2023/02/28 11:05:27;;;;;;;1.95;0.70;;;;;;;12.50;97.60;103853.00;5053522;28;20486;-74
2023/02/28 11:08:04;;;;;;;4.13;0.77;;;;;;;12.49;94.65;103856.00;5085427;28;20113;-72
2023/02/28 11:10:34;;;;;;;3.30;1.20;;;;;;;12.23;91.94;103852.81;5052656;28;20379;-74
2023/02/28 11:13:01;;;;;;;4.53;2.40;;;;;;;12.92;90.43;103859.91;5062275;28;20463;-73
2023/02/28 11:15:32;;;;;;;4.35;1.38;;;;;;;12.63;100.00;103857.31;5053982;28;20021;-75
2023/02/28 11:18:19;;;;;;;3.10;1.10;;;;;;;12.72;91.61;103858.56;5085646;28;20059;-74
2023/02/28 11:20:50;;;;;;;2.00;1.00;;;;;;;12.48;95.09;103848.84;5052348;28;20025;-73
2023/02/28 11:23:16;;;;;;;4.32;1.75;;;;;;;13.42;84.94;103845.22;5060868;28;20033;-72
2023/02/28 11:25:49;;;;;;;3.20;1.00;;;;;;;12.44;85.21;103845.78;5053611;28;20099;-74
2023/02/28 11:28:34;;;;;;;2.13;0.77;;;;;;;12.60;81.34;103835.84;5086754;28;20103;-75
2023/02/28 11:31:13;;;;;;;2.88;1.40;;;;;;;12.61;87.36;103837.50;5053791;28;20078;-75